Terminal Aerodrome Forecast
Issued by NWS

Home | Current Version | Previous Version | Text Only | Print | Product List | Glossary On
Versions: 1 2 3 4 5 6 7 8 9 10 11 12 13 14 15 16 17 18 19 20 21 22 23 24 25 26 27 28
000
FTUS45 KGJT 182320
TAFASE
TAF
KASE 182320Z 1900/1924 35005KT P6SM SCT100
     FM190200 20007KT P6SM SCT200
     FM191800 33006KT P6SM SCT150
     FM192000 31005KT P6SM BKN130
     FM192300 29005KT P6SM BKN150=

USA.gov is the U.S. government's official web portal to all federal, state and local government web resources and services.